Wetterdaten: Woche 27.02.17 - 05.03.17 (KW9)
Datum Zeit Temp. I. Temp. A. Feuchte I. Feuchte A. Luftdruck Regen Wind Richtung Sonnenschein UV Solar Taupunkt Windchill Windben
27.02.2017 00:00 23,4 C -0,4 C 51 % 85 % 1014,8 hPa 0,0 l/m 0,0 km/h (0 Bft) N 0,00 h 0,0 UV-I 0 W/m -2,6 C -0,4 C 0,0 km/h (0 Bft)
27.02.2017 01:00 23,2 C -1,1 C 51 % 88 % 1014,7 hPa 0,0 l/m 0,0 km/h (0 Bft) N 0,00 h 0,0 UV-I 0 W/m -2,9 C -1,1 C 0,0 km/h (0 Bft)
27.02.2017 02:00 23,1 C -0,9 C 52 % 91 % 1014,5 hPa 0,0 l/m 0,0 km/h (0 Bft) N 0,00 h 0,0 UV-I 0 W/m -2,3 C -0,9 C 0,0 km/h (0 Bft)
27.02.2017 03:00 23,1 C 0,0 C 52 % 92 % 1014,1 hPa 0,0 l/m 0,0 km/h (0 Bft) N 0,00 h 0,0 UV-I 0 W/m -1,1 C 0,0 C 0,0 km/h (0 Bft)
27.02.2017 04:00 23,0 C 0,6 C 52 % 92 % 1013,5 hPa 0,0 l/m 0,0 km/h (0 Bft) N 0,00 h 0,0 UV-I 0 W/m -0,6 C 0,6 C 0,0 km/h (0 Bft)
27.02.2017 05:00 22,9 C 0,2 C 53 % 91 % 1013,2 hPa 0,0 l/m 0,0 km/h (0 Bft) N 0,00 h 0,0 UV-I 0 W/m -1,1 C 0,2 C 0,0 km/h (0 Bft)
27.02.2017 06:00 22,9 C -0,4 C 53 % 91 % 1012,9 hPa 0,0 l/m 0,0 km/h (0 Bft) N 0,00 h 0,0 UV-I 0 W/m -1,6 C -0,4 C 0,0 km/h (0 Bft)
27.02.2017 07:00 22,9 C -0,0 C 53 % 93 % 1012,6 hPa 0,0 l/m 0,0 km/h (0 Bft) N 0,00 h 0,0 UV-I 20 W/m -1,1 C -0,0 C 0,0 km/h (0 Bft)
27.02.2017 08:00 23,1 C 1,4 C 53 % 92 % 1012,3 hPa 0,0 l/m 0,0 km/h (0 Bft) N 0,12 h 0,6 UV-I 94 W/m 0,3 C 1,4 C 0,0 km/h (0 Bft)
27.02.2017 09:00 23,2 C 5,4 C 54 % 78 % 1011,6 hPa 0,0 l/m 0,0 km/h (0 Bft) N 1,00 h 1,1 UV-I 333 W/m 1,8 C 5,4 C 0,0 km/h (0 Bft)
27.02.2017 10:00 23,2 C 8,8 C 54 % 64 % 1010,7 hPa 0,0 l/m 3,3 km/h (1 Bft) S 1,00 h 1,7 UV-I 457 W/m 2,3 C 8,6 C 6,1 km/h (2 Bft)
27.02.2017 11:00 23,3 C 10,2 C 52 % 59 % 1009,6 hPa 0,0 l/m 6,5 km/h (2 Bft) S 1,00 h 2,0 UV-I 499 W/m 2,5 C 9,3 C 11,2 km/h (2 Bft)
27.02.2017 12:00 23,1 C 11,0 C 47 % 55 % 1008,2 hPa 0,0 l/m 8,6 km/h (2 Bft) S 1,00 h 2,3 UV-I 529 W/m 2,3 C 9,3 C 15,2 km/h (3 Bft)
27.02.2017 13:00 23,4 C 12,3 C 45 % 49 % 1006,7 hPa 0,0 l/m 8,1 km/h (2 Bft) S 1,00 h 2,1 UV-I 496 W/m 1,9 C 10,9 C 14,7 km/h (3 Bft)
27.02.2017 14:00 23,8 C 12,7 C 47 % 50 % 1005,4 hPa 0,0 l/m 6,6 km/h (2 Bft) S-SO 1,00 h 1,6 UV-I 437 W/m 2,6 C 11,6 C 11,7 km/h (2 Bft)
27.02.2017 15:00 23,7 C 12,8 C 47 % 50 % 1004,3 hPa 0,0 l/m 9,6 km/h (2 Bft) S-SO 1,00 h 1,0 UV-I 303 W/m 2,6 C 10,8 C 16,1 km/h (3 Bft)
27.02.2017 16:00 23,7 C 12,1 C 46 % 51 % 1003,5 hPa 0,0 l/m 7,9 km/h (2 Bft) S-SO 0,45 h 0,6 UV-I 141 W/m 2,4 C 10,6 C 13,2 km/h (3 Bft)
27.02.2017 17:00 23,6 C 10,9 C 44 % 53 % 1002,4 hPa 0,0 l/m 2,0 km/h (1 Bft) SO 0,00 h 0,0 UV-I 23 W/m 1,7 C 10,7 C 4,4 km/h (1 Bft)
27.02.2017 18:00 23,9 C 9,7 C 46 % 56 % 1001,9 hPa 0,0 l/m 0,1 km/h (0 Bft) SO 0,00 h 0,0 UV-I 0 W/m 1,3 C 9,7 C 0,5 km/h (0 Bft)
27.02.2017 19:00 24,0 C 8,2 C 47 % 60 % 1001,4 hPa 0,0 l/m 0,1 km/h (0 Bft) SO 0,00 h 0,0 UV-I 0 W/m 0,9 C 8,2 C 0,6 km/h (0 Bft)
27.02.2017 20:00 23,9 C 6,4 C 48 % 66 % 1001,0 hPa 0,0 l/m 0,0 km/h (0 Bft) S 0,00 h 0,0 UV-I 0 W/m 0,4 C 6,4 C 0,4 km/h (0 Bft)
27.02.2017 21:00 24,0 C 6,0 C 48 % 65 % 1000,5 hPa 0,0 l/m 0,4 km/h (0 Bft) S 0,00 h 0,0 UV-I 0 W/m 0,0 C 6,0 C 1,7 km/h (1 Bft)
27.02.2017 22:00 24,2 C 7,0 C 48 % 61 % 999,7 hPa 0,0 l/m 4,7 km/h (1 Bft) S 0,00 h 0,0 UV-I 0 W/m 0,1 C 6,6 C 10,0 km/h (2 Bft)
27.02.2017 23:00 24,0 C 8,1 C 49 % 56 % 998,8 hPa 0,0 l/m 11,8 km/h (2 Bft) S 0,00 h 0,0 UV-I 0 W/m -0,1 C 4,6 C 18,6 km/h (3 Bft)
28.02.2017 00:00 23,7 C 8,7 C 49 % 53 % 998,1 hPa 0,0 l/m 13,4 km/h (3 Bft) S 0,00 h 0,0 UV-I 0 W/m -0,5 C 4,4 C 20,2 km/h (4 Bft)
28.02.2017 01:00 23,4 C 8,5 C 49 % 55 % 997,9 hPa 0,0 l/m 8,2 km/h (2 Bft) S 0,00 h 0,0 UV-I 0 W/m -0,1 C 6,7 C 13,2 km/h (3 Bft)
28.02.2017 02:00 23,3 C 6,8 C 50 % 63 % 998,4 hPa 0,0 l/m 5,0 km/h (1 Bft) W-SW 0,00 h 0,0 UV-I 0 W/m 0,3 C 5,8 C 8,8 km/h (2 Bft)
28.02.2017 03:00 23,2 C 5,8 C 50 % 69 % 996,6 hPa 0,0 l/m 0,1 km/h (0 Bft) O-SO 0,00 h 0,0 UV-I 0 W/m 0,4 C 5,8 C 0,2 km/h (0 Bft)
28.02.2017 04:00 23,1 C 5,4 C 50 % 74 % 996,2 hPa 0,0 l/m 0,2 km/h (0 Bft) S 0,00 h 0,0 UV-I 0 W/m 1,2 C 5,4 C 0,8 km/h (0 Bft)
28.02.2017 05:00 23,0 C 5,6 C 51 % 81 % 997,7 hPa 0,0 l/m 8,3 km/h (2 Bft) W-SW 0,00 h 0,0 UV-I 0 W/m 2,5 C 3,3 C 15,3 km/h (3 Bft)
28.02.2017 06:00 22,9 C 4,2 C 51 % 87 % 998,9 hPa 1,0 l/m 8,3 km/h (2 Bft) W-SW 0,00 h 0,0 UV-I 0 W/m 2,2 C 2,3 C 14,9 km/h (3 Bft)
28.02.2017 07:00 23,0 C 2,6 C 51 % 90 % 999,5 hPa 1,0 l/m 2,8 km/h (1 Bft) S 0,00 h 0,0 UV-I 8 W/m 1,2 C 2,6 C 6,1 km/h (2 Bft)
28.02.2017 08:00 23,5 C 2,0 C 51 % 93 % 999,2 hPa 0,0 l/m 8,1 km/h (2 Bft) S-SO 0,00 h 0,0 UV-I 23 W/m 0,9 C -0,0 C 13,0 km/h (3 Bft)
28.02.2017 09:00 23,6 C 2,3 C 52 % 93 % 999,5 hPa 0,0 l/m 13,4 km/h (3 Bft) S 0,00 h 0,0 UV-I 55 W/m 1,3 C -3,1 C 20,0 km/h (4 Bft)
28.02.2017 10:00 23,5 C 2,7 C 52 % 92 % 999,6 hPa 0,0 l/m 11,2 km/h (2 Bft) S 0,00 h 0,6 UV-I 80 W/m 1,5 C -1,2 C 16,5 km/h (3 Bft)
28.02.2017 11:00 23,6 C 3,0 C 51 % 90 % 999,3 hPa 0,0 l/m 10,8 km/h (2 Bft) S 0,00 h 0,6 UV-I 100 W/m 1,5 C -0,6 C 16,2 km/h (3 Bft)
28.02.2017 12:00 23,6 C 3,3 C 51 % 89 % 998,7 hPa 0,0 l/m 8,9 km/h (2 Bft) S-SO 0,00 h 0,7 UV-I 100 W/m 1,6 C 0,8 C 14,0 km/h (3 Bft)
28.02.2017 13:00 24,1 C 4,0 C 51 % 85 % 997,8 hPa 0,0 l/m 10,0 km/h (2 Bft) S-SO 0,38 h 1,0 UV-I 172 W/m 1,7 C 1,0 C 15,7 km/h (3 Bft)
28.02.2017 14:00 24,1 C 4,1 C 51 % 83 % 997,2 hPa 0,0 l/m 12,8 km/h (3 Bft) S-SO 0,38 h 0,8 UV-I 144 W/m 1,5 C -0,5 C 18,7 km/h (3 Bft)
28.02.2017 15:00 24,0 C 4,1 C 53 % 83 % 996,4 hPa 0,0 l/m 12,4 km/h (3 Bft) S-SO 0,03 h 0,6 UV-I 91 W/m 1,6 C -0,3 C 18,7 km/h (3 Bft)
28.02.2017 16:00 24,1 C 3,9 C 54 % 85 % 995,5 hPa 0,0 l/m 10,4 km/h (2 Bft) S-SO 0,00 h 0,5 UV-I 60 W/m 1,5 C 0,6 C 15,9 km/h (3 Bft)
28.02.2017 17:00 23,9 C 3,2 C 54 % 88 % 995,3 hPa 0,4 l/m 7,4 km/h (2 Bft) S-SO 0,00 h 0,0 UV-I 12 W/m 1,3 C 1,1 C 11,9 km/h (2 Bft)
28.02.2017 18:00 23,9 C 2,5 C 55 % 92 % 995,8 hPa 0,4 l/m 7,4 km/h (2 Bft) S 0,00 h 0,0 UV-I 0 W/m 1,3 C 1,0 C 12,5 km/h (3 Bft)
28.02.2017 19:00 23,9 C 2,4 C 53 % 93 % 996,5 hPa 0,2 l/m 12,9 km/h (3 Bft) S 0,00 h 0,0 UV-I 0 W/m 1,4 C -2,6 C 20,1 km/h (4 Bft)
28.02.2017 20:00 24,0 C 2,5 C 52 % 94 % 997,0 hPa 0,2 l/m 14,5 km/h (3 Bft) S 0,00 h 0,0 UV-I 0 W/m 1,6 C -3,4 C 21,9 km/h (4 Bft)
28.02.2017 21:00 24,2 C 2,9 C 52 % 94 % 997,4 hPa 0,2 l/m 12,6 km/h (3 Bft) S 0,00 h 0,0 UV-I 0 W/m 2,0 C -1,9 C 19,3 km/h (3 Bft)
28.02.2017 22:00 24,2 C 3,0 C 53 % 94 % 997,9 hPa 0,6 l/m 10,6 km/h (2 Bft) S 0,00 h 0,0 UV-I 0 W/m 2,1 C -0,5 C 17,5 km/h (3 Bft)
28.02.2017 23:00 23,8 C 3,1 C 53 % 93 % 998,5 hPa 0,0 l/m 9,5 km/h (2 Bft) W-SW 0,00 h 0,0 UV-I 0 W/m 2,1 C 0,4 C 17,2 km/h (3 Bft)
01.03.2017 00:00 23,6 C 2,7 C 53 % 91 % 999,4 hPa 0,0 l/m 6,6 km/h (2 Bft) SW 0,00 h 0,0 UV-I 0 W/m 1,4 C 1,6 C 12,8 km/h (3 Bft)
01.03.2017 01:00 23,4 C 2,4 C 53 % 91 % 1000,5 hPa 0,0 l/m 9,3 km/h (2 Bft) SW 0,00 h 0,0 UV-I 0 W/m 1,1 C -0,2 C 16,2 km/h (3 Bft)
01.03.2017 02:00 23,3 C 1,8 C 54 % 88 % 1001,5 hPa 0,0 l/m 4,8 km/h (1 Bft) W-SW 0,00 h 0,0 UV-I 0 W/m -0,0 C 1,0 C 9,4 km/h (2 Bft)
01.03.2017 03:00 23,2 C 1,4 C 54 % 89 % 1001,9 hPa 0,0 l/m 3,3 km/h (1 Bft) SW 0,00 h 0,0 UV-I 0 W/m -0,1 C 1,4 C 7,5 km/h (2 Bft)
01.03.2017 04:00 23,1 C 1,4 C 54 % 91 % 1002,2 hPa 0,0 l/m 6,4 km/h (2 Bft) S 0,00 h 0,0 UV-I 0 W/m 0,0 C 0,6 C 11,3 km/h (2 Bft)
01.03.2017 05:00 23,1 C 1,6 C 54 % 90 % 1002,2 hPa 0,0 l/m 10,0 km/h (2 Bft) S 0,00 h 0,0 UV-I 0 W/m 0,1 C -1,6 C 16,2 km/h (3 Bft)
01.03.2017 06:00 23,0 C 1,6 C 54 % 91 % 1002,7 hPa 0,0 l/m 9,3 km/h (2 Bft) S 0,00 h 0,0 UV-I 0 W/m 0,3 C -1,0 C 15,3 km/h (3 Bft)
01.03.2017 07:00 22,9 C 1,8 C 54 % 90 % 1003,3 hPa 0,0 l/m 7,8 km/h (2 Bft) S 0,00 h 0,0 UV-I 18 W/m 0,4 C 0,2 C 13,8 km/h (3 Bft)
01.03.2017 08:00 23,0 C 2,0 C 55 % 91 % 1003,8 hPa 0,0 l/m 6,9 km/h (2 Bft) SW 0,00 h 0,0 UV-I 31 W/m 0,7 C 0,8 C 11,9 km/h (2 Bft)
01.03.2017 09:00 23,2 C 2,5 C 56 % 91 % 1004,1 hPa 0,0 l/m 7,9 km/h (2 Bft) SW 0,00 h 0,4 UV-I 48 W/m 1,2 C 0,7 C 14,4 km/h (3 Bft)
01.03.2017 10:00 23,3 C 3,3 C 56 % 88 % 1004,9 hPa 0,0 l/m 9,8 km/h (2 Bft) SW 0,00 h 0,5 UV-I 49 W/m 1,4 C 0,3 C 17,1 km/h (3 Bft)
01.03.2017 11:00 23,5 C 3,6 C 56 % 88 % 1005,6 hPa 0,0 l/m 9,9 km/h (2 Bft) S 0,00 h 0,5 UV-I 46 W/m 1,8 C 0,7 C 17,0 km/h (3 Bft)
01.03.2017 12:00 23,1 C 4,1 C 52 % 86 % 1005,8 hPa 0,2 l/m 7,3 km/h (2 Bft) SW 0,03 h 0,6 UV-I 71 W/m 2,0 C 2,9 C 13,3 km/h (3 Bft)
01.03.2017 13:00 23,0 C 5,5 C 49 % 80 % 1005,5 hPa 0,0 l/m 10,7 km/h (2 Bft) SW 0,38 h 0,9 UV-I 144 W/m 2,4 C 2,3 C 18,3 km/h (3 Bft)
01.03.2017 14:00 22,3 C 6,1 C 43 % 76 % 1005,7 hPa 0,0 l/m 11,8 km/h (2 Bft) SW 0,60 h 1,0 UV-I 169 W/m 2,2 C 2,4 C 20,2 km/h (4 Bft)
01.03.2017 15:00 22,5 C 6,8 C 45 % 67 % 1006,0 hPa 0,0 l/m 11,1 km/h (2 Bft) W-SW 0,42 h 0,7 UV-I 148 W/m 1,1 C 3,5 C 19,1 km/h (3 Bft)
01.03.2017 16:00 22,9 C 6,5 C 46 % 64 % 1006,4 hPa 0,0 l/m 9,8 km/h (2 Bft) W-SW 0,00 h 0,5 UV-I 26 W/m 0,2 C 3,8 C 17,4 km/h (3 Bft)
01.03.2017 17:00 22,9 C 6,2 C 46 % 69 % 1006,7 hPa 0,0 l/m 6,3 km/h (2 Bft) SW 0,00 h 0,0 UV-I 10 W/m 0,8 C 5,1 C 12,9 km/h (3 Bft)
01.03.2017 18:00 23,1 C 4,6 C 48 % 84 % 1007,5 hPa 0,2 l/m 7,7 km/h (2 Bft) SW 0,00 h 0,0 UV-I 0 W/m 2,0 C 2,7 C 14,3 km/h (3 Bft)
01.03.2017 19:00 23,5 C 4,0 C 49 % 88 % 1007,6 hPa 0,0 l/m 3,3 km/h (1 Bft) S-SW 0,00 h 0,0 UV-I 0 W/m 2,2 C 3,7 C 7,6 km/h (2 Bft)
01.03.2017 20:00 23,9 C 4,0 C 49 % 89 % 1007,5 hPa 0,0 l/m 2,0 km/h (1 Bft) S 0,00 h 0,0 UV-I 0 W/m 2,4 C 4,0 C 4,9 km/h (1 Bft)
01.03.2017 21:00 24,2 C 3,9 C 49 % 90 % 1006,9 hPa 0,2 l/m 6,4 km/h (2 Bft) S 0,00 h 0,0 UV-I 0 W/m 2,5 C 2,8 C 12,1 km/h (2 Bft)
01.03.2017 22:00 24,1 C 3,9 C 50 % 91 % 1006,3 hPa 0,0 l/m 4,8 km/h (1 Bft) S 0,00 h 0,0 UV-I 0 W/m 2,6 C 3,6 C 9,7 km/h (2 Bft)
01.03.2017 23:00 24,1 C 4,1 C 50 % 90 % 1005,6 hPa 0,0 l/m 9,0 km/h (2 Bft) S 0,00 h 0,0 UV-I 0 W/m 2,7 C 1,7 C 14,0 km/h (3 Bft)
02.03.2017 00:00 23,7 C 3,9 C 51 % 93 % 1004,9 hPa 0,4 l/m 10,7 km/h (2 Bft) S 0,00 h 0,0 UV-I 0 W/m 2,8 C 0,5 C 17,3 km/h (3 Bft)
02.03.2017 01:00 23,4 C 4,1 C 51 % 94 % 1004,3 hPa 0,2 l/m 10,4 km/h (2 Bft) S 0,00 h 0,0 UV-I 0 W/m 3,2 C 0,9 C 16,9 km/h (3 Bft)
02.03.2017 02:00 23,2 C 4,5 C 51 % 95 % 1004,0 hPa 0,2 l/m 9,5 km/h (2 Bft) S 0,00 h 0,0 UV-I 0 W/m 3,7 C 1,8 C 16,4 km/h (3 Bft)
02.03.2017 03:00 23,1 C 4,9 C 51 % 95 % 1003,8 hPa 0,0 l/m 9,1 km/h (2 Bft) S 0,00 h 0,0 UV-I 0 W/m 4,1 C 2,5 C 14,8 km/h (3 Bft)
02.03.2017 04:00 23,0 C 5,6 C 51 % 95 % 1003,6 hPa 0,2 l/m 8,3 km/h (2 Bft) S 0,00 h 0,0 UV-I 0 W/m 4,8 C 3,7 C 14,5 km/h (3 Bft)
02.03.2017 05:00 22,9 C 6,1 C 51 % 94 % 1004,0 hPa 0,0 l/m 7,7 km/h (2 Bft) S 0,00 h 0,0 UV-I 0 W/m 5,3 C 4,5 C 14,2 km/h (3 Bft)
02.03.2017 06:00 22,9 C 6,2 C 52 % 94 % 1004,2 hPa 0,2 l/m 7,6 km/h (2 Bft) S-SW 0,00 h 0,0 UV-I 0 W/m 5,2 C 4,8 C 13,7 km/h (3 Bft)
02.03.2017 07:00 23,0 C 5,9 C 52 % 92 % 1004,8 hPa 0,0 l/m 7,6 km/h (2 Bft) SW 0,00 h 0,0 UV-I 22 W/m 4,7 C 4,5 C 14,1 km/h (3 Bft)
02.03.2017 08:00 23,4 C 5,8 C 53 % 87 % 1006,0 hPa 0,0 l/m 14,3 km/h (3 Bft) SW 0,00 h 0,6 UV-I 54 W/m 3,8 C 0,6 C 23,2 km/h (4 Bft)
02.03.2017 09:00 23,9 C 6,2 C 51 % 75 % 1007,2 hPa 0,2 l/m 20,4 km/h (4 Bft) W-SW 0,40 h 0,9 UV-I 138 W/m 2,1 C -1,3 C 31,8 km/h (5 Bft)
02.03.2017 10:00 24,2 C 7,2 C 50 % 61 % 1008,2 hPa 0,0 l/m 20,7 km/h (4 Bft) W-SW 0,87 h 1,7 UV-I 474 W/m 0,2 C -0,4 C 33,6 km/h (5 Bft)
02.03.2017 11:00 24,1 C 6,8 C 49 % 61 % 1009,1 hPa 0,0 l/m 20,3 km/h (4 Bft) W-SW 0,80 h 1,6 UV-I 282 W/m -0,3 C -0,4 C 32,6 km/h (5 Bft)
02.03.2017 12:00 24,0 C 7,5 C 49 % 55 % 1009,7 hPa 0,0 l/m 22,5 km/h (4 Bft) W-SW 0,90 h 1,9 UV-I 321 W/m -0,9 C -0,6 C 35,8 km/h (5 Bft)
02.03.2017 13:00 23,8 C 7,2 C 49 % 54 % 1010,3 hPa 0,0 l/m 22,8 km/h (4 Bft) W-SW 0,48 h 1,3 UV-I 181 W/m -1,5 C -1,0 C 35,9 km/h (5 Bft)
02.03.2017 14:00 24,1 C 7,1 C 50 % 57 % 1011,1 hPa 0,0 l/m 21,8 km/h (4 Bft) W-SW 0,60 h 1,2 UV-I 237 W/m -0,9 C -1,0 C 34,3 km/h (5 Bft)
02.03.2017 15:00 23,8 C 7,2 C 50 % 52 % 1011,6 hPa 0,0 l/m 24,4 km/h (4 Bft) W-SW 0,40 h 0,9 UV-I 180 W/m -2,0 C -1,6 C 38,7 km/h (5 Bft)
02.03.2017 16:00 23,9 C 7,0 C 51 % 53 % 1012,5 hPa 0,0 l/m 16,8 km/h (3 Bft) W-SW 0,00 h 0,5 UV-I 96 W/m -1,8 C 1,1 C 26,7 km/h (4 Bft)
02.03.2017 17:00 24,0 C 6,6 C 51 % 55 % 1013,4 hPa 0,0 l/m 9,8 km/h (2 Bft) W-SW 0,00 h 0,0 UV-I 33 W/m -1,8 C 3,7 C 17,8 km/h (3 Bft)
02.03.2017 18:00 24,2 C 5,7 C 52 % 61 % 1014,5 hPa 0,0 l/m 1,8 km/h (1 Bft) SW 0,00 h 0,0 UV-I 0 W/m -1,3 C 5,7 C 5,8 km/h (2 Bft)
02.03.2017 19:00 24,3 C 4,9 C 52 % 65 % 1014,9 hPa 0,0 l/m 3,1 km/h (1 Bft) SW 0,00 h 0,0 UV-I 0 W/m -1,1 C 4,7 C 8,2 km/h (2 Bft)
02.03.2017 20:00 24,4 C 4,5 C 52 % 66 % 1015,4 hPa 0,0 l/m 4,2 km/h (1 Bft) S-SW 0,00 h 0,0 UV-I 0 W/m -1,4 C 4,2 C 9,5 km/h (2 Bft)
02.03.2017 21:00 24,4 C 4,0 C 52 % 68 % 1016,3 hPa 0,0 l/m 2,4 km/h (1 Bft) S-SW 0,00 h 0,0 UV-I 0 W/m -1,4 C 4,0 C 7,5 km/h (2 Bft)
02.03.2017 22:00 24,3 C 3,8 C 52 % 70 % 1016,9 hPa 0,0 l/m 2,7 km/h (1 Bft) S-SW 0,00 h 0,0 UV-I 0 W/m -1,2 C 3,8 C 7,5 km/h (2 Bft)
02.03.2017 23:00 24,0 C 4,0 C 51 % 70 % 1017,6 hPa 0,0 l/m 1,4 km/h (1 Bft) S 0,00 h 0,0 UV-I 0 W/m -0,9 C 4,0 C 4,6 km/h (1 Bft)
03.03.2017 00:00 23,7 C 3,7 C 52 % 72 % 1018,0 hPa 0,0 l/m 0,7 km/h (0 Bft) SW 0,00 h 0,0 UV-I 0 W/m -0,9 C 3,7 C 2,9 km/h (1 Bft)
03.03.2017 01:00 23,6 C 2,8 C 52 % 74 % 1018,2 hPa 0,0 l/m 0,7 km/h (0 Bft) S-SO 0,00 h 0,0 UV-I 0 W/m -1,3 C 2,8 C 2,5 km/h (1 Bft)
03.03.2017 02:00 23,5 C 2,2 C 52 % 77 % 1018,2 hPa 0,0 l/m 0,4 km/h (0 Bft) S-SW 0,00 h 0,0 UV-I 0 W/m -1,5 C 2,2 C 1,6 km/h (1 Bft)
03.03.2017 03:00 23,6 C 1,6 C 53 % 79 % 1017,8 hPa 0,0 l/m 0,3 km/h (0 Bft) W-SW 0,00 h 0,0 UV-I 0 W/m -1,7 C 1,6 C 1,1 km/h (1 Bft)
03.03.2017 04:00 23,6 C 0,7 C 53 % 81 % 1017,7 hPa 0,0 l/m 0,1 km/h (0 Bft) O 0,00 h 0,0 UV-I 0 W/m -2,2 C 0,7 C 0,2 km/h (0 Bft)
03.03.2017 05:00 23,4 C -0,2 C 54 % 84 % 1017,5 hPa 0,0 l/m 0,1 km/h (0 Bft) O 0,00 h 0,0 UV-I 0 W/m -2,5 C -0,2 C 0,2 km/h (0 Bft)
03.03.2017 06:00 23,5 C -0,4 C 54 % 87 % 1017,1 hPa 0,0 l/m 0,3 km/h (0 Bft) O 0,00 h 0,0 UV-I 6 W/m -2,3 C -0,4 C 1,0 km/h (0 Bft)
03.03.2017 07:00 23,5 C -0,2 C 54 % 88 % 1017,0 hPa 0,0 l/m 0,0 km/h (0 Bft) N 0,00 h 0,0 UV-I 27 W/m -2,0 C -0,2 C 0,1 km/h (0 Bft)
03.03.2017 08:00 23,5 C 1,1 C 54 % 87 % 1016,9 hPa 0,0 l/m 0,0 km/h (0 Bft) N 0,60 h 0,6 UV-I 171 W/m -0,8 C 1,1 C 0,0 km/h (0 Bft)
03.03.2017 09:00 23,5 C 4,2 C 54 % 76 % 1016,3 hPa 0,0 l/m 0,0 km/h (0 Bft) N 0,97 h 1,1 UV-I 318 W/m 0,3 C 4,2 C 0,0 km/h (0 Bft)
03.03.2017 10:00 23,5 C 6,8 C 52 % 60 % 1015,4 hPa 0,0 l/m 4,1 km/h (1 Bft) SO 1,00 h 1,7 UV-I 418 W/m -0,4 C 6,2 C 8,8 km/h (2 Bft)
03.03.2017 11:00 23,4 C 8,2 C 48 % 50 % 1014,6 hPa 0,0 l/m 8,2 km/h (2 Bft) SO 1,00 h 2,0 UV-I 395 W/m -1,5 C 6,3 C 13,5 km/h (3 Bft)
03.03.2017 12:00 23,5 C 8,9 C 45 % 48 % 1013,6 hPa 0,0 l/m 7,7 km/h (2 Bft) SO 1,00 h 1,9 UV-I 354 W/m -1,5 C 7,5 C 12,9 km/h (3 Bft)
03.03.2017 13:00 23,2 C 9,3 C 41 % 49 % 1012,4 hPa 0,0 l/m 8,4 km/h (2 Bft) SO 1,00 h 1,6 UV-I 296 W/m -1,0 C 7,3 C 14,4 km/h (3 Bft)
03.03.2017 14:00 23,5 C 9,3 C 42 % 48 % 1011,5 hPa 0,0 l/m 7,8 km/h (2 Bft) SO 1,00 h 1,2 UV-I 237 W/m -1,0 C 7,8 C 13,5 km/h (3 Bft)
03.03.2017 15:00 23,7 C 9,5 C 41 % 49 % 1010,5 hPa 0,0 l/m 4,8 km/h (1 Bft) O-SO 0,75 h 0,8 UV-I 166 W/m -0,7 C 8,7 C 9,4 km/h (2 Bft)
03.03.2017 16:00 23,9 C 9,2 C 41 % 50 % 1009,5 hPa 0,0 l/m 6,9 km/h (2 Bft) SO 0,00 h 0,5 UV-I 70 W/m -0,6 C 8,1 C 12,6 km/h (3 Bft)
03.03.2017 17:00 23,8 C 8,5 C 43 % 55 % 1008,8 hPa 0,0 l/m 3,3 km/h (1 Bft) SO 0,00 h 0,0 UV-I 22 W/m -0,1 C 8,3 C 7,0 km/h (2 Bft)
03.03.2017 18:00 23,8 C 7,9 C 45 % 58 % 1008,3 hPa 0,0 l/m 1,1 km/h (1 Bft) SO 0,00 h 0,0 UV-I 0 W/m 0,2 C 7,9 C 2,9 km/h (1 Bft)
03.03.2017 19:00 23,9 C 7,0 C 46 % 62 % 1007,7 hPa 0,0 l/m 0,0 km/h (0 Bft) N 0,00 h 0,0 UV-I 0 W/m 0,4 C 7,0 C 0,0 km/h (0 Bft)
03.03.2017 20:00 23,9 C 5,4 C 47 % 69 % 1007,0 hPa 0,0 l/m 0,0 km/h (0 Bft) N 0,00 h 0,0 UV-I 0 W/m 0,2 C 5,4 C 0,0 km/h (0 Bft)
03.03.2017 21:00 24,1 C 3,9 C 47 % 75 % 1006,5 hPa 0,0 l/m 0,0 km/h (0 Bft) N 0,00 h 0,0 UV-I 0 W/m -0,1 C 3,9 C 0,0 km/h (0 Bft)
03.03.2017 22:00 24,1 C 2,6 C 48 % 80 % 1005,8 hPa 0,0 l/m 0,0 km/h (0 Bft) N 0,00 h 0,0 UV-I 0 W/m -0,5 C 2,6 C 0,0 km/h (0 Bft)
03.03.2017 23:00 23,8 C 1,7 C 48 % 83 % 1005,4 hPa 0,0 l/m 0,0 km/h (0 Bft) N 0,00 h 0,0 UV-I 0 W/m -0,8 C 1,7 C 0,0 km/h (0 Bft)
04.03.2017 00:00 23,5 C 0,9 C 49 % 86 % 1004,9 hPa 0,0 l/m 0,0 km/h (0 Bft) N 0,00 h 0,0 UV-I 0 W/m -1,2 C 0,9 C 0,0 km/h (0 Bft)
04.03.2017 01:00 23,3 C 0,4 C 49 % 88 % 1004,6 hPa 0,0 l/m 0,0 km/h (0 Bft) N 0,00 h 0,0 UV-I 0 W/m -1,4 C 0,4 C 0,0 km/h (0 Bft)
04.03.2017 02:00 23,2 C -0,1 C 49 % 89 % 1004,0 hPa 0,0 l/m 0,0 km/h (0 Bft) N 0,00 h 0,0 UV-I 0 W/m -1,7 C -0,1 C 0,0 km/h (0 Bft)
04.03.2017 03:00 23,1 C -0,5 C 50 % 89 % 1003,3 hPa 0,0 l/m 0,0 km/h (0 Bft) N 0,00 h 0,0 UV-I 0 W/m -2,0 C -0,5 C 0,0 km/h (0 Bft)
04.03.2017 04:00 23,1 C -0,6 C 50 % 90 % 1002,8 hPa 0,0 l/m 0,0 km/h (0 Bft) N 0,00 h 0,0 UV-I 0 W/m -1,9 C -0,6 C 0,0 km/h (0 Bft)
04.03.2017 05:00 23,0 C -0,9 C 50 % 90 % 1002,5 hPa 0,0 l/m 0,0 km/h (0 Bft) N 0,00 h 0,0 UV-I 0 W/m -2,3 C -0,9 C 0,0 km/h (0 Bft)
04.03.2017 06:00 22,9 C -1,2 C 50 % 91 % 1002,2 hPa 0,0 l/m 0,0 km/h (0 Bft) N 0,00 h 0,0 UV-I 6 W/m -2,5 C -1,2 C 0,0 km/h (0 Bft)
04.03.2017 07:00 22,9 C -1,3 C 51 % 92 % 1001,8 hPa 0,0 l/m 0,0 km/h (0 Bft) N 0,00 h 0,0 UV-I 40 W/m -2,4 C -1,3 C 0,1 km/h (0 Bft)
04.03.2017 08:00 23,3 C 3,4 C 50 % 84 % 1001,5 hPa 0,0 l/m 1,3 km/h (1 Bft) O-NO 0,77 h 0,7 UV-I 217 W/m 0,8 C 3,4 C 3,9 km/h (1 Bft)
04.03.2017 09:00 23,6 C 8,6 C 50 % 62 % 1000,9 hPa 0,0 l/m 4,6 km/h (1 Bft) O-NO 1,00 h 1,1 UV-I 375 W/m 1,8 C 8,0 C 9,7 km/h (2 Bft)
04.03.2017 10:00 23,7 C 10,9 C 49 % 56 % 1000,0 hPa 0,0 l/m 2,2 km/h (1 Bft) O 1,00 h 1,8 UV-I 485 W/m 2,5 C 10,7 C 5,7 km/h (1 Bft)
04.03.2017 11:00 23,8 C 12,6 C 49 % 51 % 998,8 hPa 0,0 l/m 3,6 km/h (1 Bft) O 1,00 h 2,0 UV-I 464 W/m 2,8 C 12,3 C 8,9 km/h (2 Bft)
04.03.2017 12:00 23,8 C 13,7 C 48 % 49 % 997,7 hPa 0,0 l/m 3,1 km/h (1 Bft) O-NO 1,00 h 2,0 UV-I 455 W/m 3,2 C 13,5 C 8,0 km/h (2 Bft)
04.03.2017 13:00 23,4 C 14,3 C 43 % 47 % 996,7 hPa 0,0 l/m 4,1 km/h (1 Bft) O 1,00 h 2,0 UV-I 471 W/m 3,3 C 14,0 C 9,8 km/h (2 Bft)
04.03.2017 14:00 23,5 C 14,3 C 42 % 49 % 995,6 hPa 0,0 l/m 6,4 km/h (2 Bft) O-SO 1,00 h 1,4 UV-I 326 W/m 3,9 C 13,4 C 13,4 km/h (3 Bft)
04.03.2017 15:00 23,4 C 13,5 C 42 % 55 % 994,9 hPa 0,0 l/m 6,5 km/h (2 Bft) O-SO 1,00 h 0,8 UV-I 186 W/m 4,6 C 12,5 C 12,9 km/h (3 Bft)
04.03.2017 16:00 23,3 C 13,1 C 42 % 58 % 994,3 hPa 0,0 l/m 4,8 km/h (1 Bft) O-SO 0,07 h 0,5 UV-I 76 W/m 5,0 C 12,7 C 11,9 km/h (2 Bft)
04.03.2017 17:00 23,4 C 12,5 C 43 % 60 % 993,8 hPa 0,0 l/m 3,3 km/h (1 Bft) O-SO 0,00 h 0,0 UV-I 20 W/m 5,0 C 12,3 C 8,7 km/h (2 Bft)
04.03.2017 18:00 23,8 C 11,4 C 45 % 65 % 993,7 hPa 0,0 l/m 0,7 km/h (0 Bft) O-NO 0,00 h 0,0 UV-I 0 W/m 5,0 C 11,4 C 2,4 km/h (1 Bft)
04.03.2017 19:00 23,8 C 10,3 C 45 % 69 % 993,8 hPa 0,0 l/m 0,6 km/h (0 Bft) NO 0,00 h 0,0 UV-I 0 W/m 4,8 C 10,3 C 1,6 km/h (1 Bft)
04.03.2017 20:00 23,9 C 9,2 C 47 % 72 % 994,0 hPa 0,0 l/m 0,0 km/h (0 Bft) N 0,00 h 0,0 UV-I 0 W/m 4,4 C 9,2 C 0,0 km/h (0 Bft)
04.03.2017 21:00 24,3 C 8,5 C 50 % 76 % 994,7 hPa 0,0 l/m 0,0 km/h (0 Bft) N 0,00 h 0,0 UV-I 0 W/m 4,5 C 8,5 C 0,0 km/h (0 Bft)
04.03.2017 22:00 24,3 C 7,6 C 49 % 79 % 996,3 hPa 0,0 l/m 0,6 km/h (0 Bft) W-SW 0,00 h 0,0 UV-I 0 W/m 4,1 C 7,6 C 2,0 km/h (1 Bft)
04.03.2017 23:00 24,0 C 8,9 C 50 % 76 % 997,8 hPa 0,0 l/m 1,1 km/h (1 Bft) SW 0,00 h 0,0 UV-I 0 W/m 4,9 C 8,9 C 4,0 km/h (1 Bft)
05.03.2017 00:00 23,7 C 8,6 C 50 % 77 % 998,9 hPa 0,0 l/m 6,8 km/h (2 Bft) W-SW 0,00 h 0,0 UV-I 0 W/m 4,8 C 7,3 C 13,9 km/h (3 Bft)
05.03.2017 01:00 23,5 C 7,5 C 50 % 80 % 1000,0 hPa 0,0 l/m 4,2 km/h (1 Bft) SW 0,00 h 0,0 UV-I 0 W/m 4,2 C 6,7 C 9,0 km/h (2 Bft)
05.03.2017 02:00 23,3 C 6,9 C 50 % 81 % 1000,6 hPa 0,0 l/m 4,6 km/h (1 Bft) S-SW 0,00 h 0,0 UV-I 0 W/m 3,8 C 6,3 C 10,2 km/h (2 Bft)
05.03.2017 03:00 23,2 C 6,8 C 50 % 78 % 1001,2 hPa 0,0 l/m 7,0 km/h (2 Bft) SW 0,00 h 0,0 UV-I 0 W/m 3,2 C 5,5 C 13,4 km/h (3 Bft)
05.03.2017 04:00 23,2 C 6,7 C 50 % 75 % 1002,0 hPa 0,0 l/m 8,7 km/h (2 Bft) SW 0,00 h 0,0 UV-I 0 W/m 2,6 C 4,6 C 16,3 km/h (3 Bft)
05.03.2017 05:00 23,1 C 6,3 C 50 % 73 % 1003,2 hPa 0,0 l/m 11,2 km/h (2 Bft) W-SW 0,00 h 0,0 UV-I 0 W/m 1,8 C 2,8 C 19,5 km/h (3 Bft)
05.03.2017 06:00 23,1 C 5,8 C 51 % 76 % 1004,1 hPa 0,0 l/m 9,2 km/h (2 Bft) W-SW 0,00 h 0,0 UV-I 6 W/m 1,8 C 3,2 C 15,9 km/h (3 Bft)
05.03.2017 07:00 23,2 C 5,5 C 51 % 79 % 1004,8 hPa 0,0 l/m 4,3 km/h (1 Bft) W-SW 0,00 h 0,0 UV-I 27 W/m 2,1 C 4,8 C 9,7 km/h (2 Bft)
05.03.2017 08:00 23,2 C 5,7 C 52 % 80 % 1005,5 hPa 0,0 l/m 0,8 km/h (0 Bft) SW 0,07 h 0,6 UV-I 73 W/m 2,4 C 5,7 C 3,2 km/h (1 Bft)
05.03.2017 09:00 23,5 C 7,4 C 53 % 73 % 1005,3 hPa 0,0 l/m 2,8 km/h (1 Bft) W-SW 0,83 h 1,0 UV-I 335 W/m 2,9 C 7,2 C 7,1 km/h (2 Bft)
05.03.2017 10:00 23,5 C 7,6 C 51 % 70 % 1005,4 hPa 0,0 l/m 6,2 km/h (2 Bft) S 0,47 h 1,0 UV-I 207 W/m 2,4 C 6,6 C 12,7 km/h (3 Bft)
05.03.2017 11:00 23,4 C 7,1 C 50 % 74 % 1005,3 hPa 0,0 l/m 4,0 km/h (1 Bft) S 0,33 h 0,9 UV-I 135 W/m 2,8 C 6,8 C 8,6 km/h (2 Bft)
05.03.2017 12:00 23,2 C 6,3 C 50 % 80 % 1005,2 hPa 0,0 l/m 4,0 km/h (1 Bft) S 0,00 h 0,7 UV-I 67 W/m 3,0 C 5,5 C 7,7 km/h (2 Bft)
05.03.2017 13:00 23,0 C 6,8 C 49 % 83 % 1004,4 hPa 0,0 l/m 0,0 km/h (0 Bft) N 0,48 h 1,0 UV-I 193 W/m 4,1 C 6,8 C 0,0 km/h (0 Bft)
05.03.2017 14:00 23,2 C 7,9 C 50 % 75 % 1003,6 hPa 0,0 l/m 0,9 km/h (0 Bft) S-SO 0,25 h 0,8 UV-I 131 W/m 3,7 C 7,8 C 2,1 km/h (1 Bft)
05.03.2017 15:00 23,4 C 8,1 C 51 % 66 % 1003,0 hPa 0,0 l/m 4,4 km/h (1 Bft) S 0,00 h 0,6 UV-I 90 W/m 2,2 C 7,5 C 9,4 km/h (2 Bft)
05.03.2017 16:00 23,8 C 8,4 C 51 % 64 % 1002,5 hPa 0,0 l/m 7,9 km/h (2 Bft) S-SO 0,22 h 0,6 UV-I 110 W/m 1,9 C 6,6 C 12,9 km/h (3 Bft)
05.03.2017 17:00 24,1 C 7,5 C 51 % 66 % 1002,6 hPa 0,0 l/m 7,1 km/h (2 Bft) S-SO 0,00 h 0,0 UV-I 20 W/m 1,6 C 6,2 C 11,8 km/h (2 Bft)
05.03.2017 18:00 24,1 C 6,4 C 51 % 71 % 1002,5 hPa 0,0 l/m 1,6 km/h (1 Bft) SO 0,00 h 0,0 UV-I 0 W/m 1,5 C 6,4 C 4,7 km/h (1 Bft)
05.03.2017 19:00 24,1 C 5,4 C 52 % 74 % 1002,3 hPa 0,0 l/m 0,1 km/h (0 Bft) SO 0,00 h 0,0 UV-I 0 W/m 1,1 C 5,4 C 0,6 km/h (0 Bft)
05.03.2017 20:00 24,1 C 4,6 C 52 % 78 % 1001,8 hPa 0,0 l/m 0,7 km/h (0 Bft) SO 0,00 h 0,0 UV-I 0 W/m 1,0 C 4,5 C 2,3 km/h (1 Bft)
05.03.2017 21:00 24,2 C 4,9 C 53 % 81 % 1001,9 hPa 0,0 l/m 5,6 km/h (1 Bft) S-SO 0,00 h 0,0 UV-I 0 W/m 1,9 C 4,1 C 11,1 km/h (2 Bft)
05.03.2017 22:00 24,3 C 4,7 C 52 % 86 % 1001,9 hPa 0,0 l/m 6,9 km/h (2 Bft) S-SO 0,00 h 0,0 UV-I 0 W/m 2,6 C 3,1 C 13,2 km/h (3 Bft)
05.03.2017 23:00 24,3 C 4,5 C 53 % 87 % 1001,7 hPa 0,0 l/m 10,9 km/h (2 Bft) S-SO 0,00 h 0,0 UV-I 0 W/m 2,5 C 1,0 C 16,7 km/h (3 Bft)
Min-Datum _ 01.03.17 04.03.17 03.03.17 04.03.17 04.03.17 - 27.02.17 - - - - 27.02.17 28.02.17 27.02.17
_ Min-Zeit 14:45 06:45 13:00 13:40 17:49 - 00:00 - - - - 01:49 20:18 00:00
Minimum _ 21,4 C -1,4 C 37 % 45 % 993,5 hPa - 0,0 km/h (0 Bft) - - - - -3,0 C -8,1 C 0,0 km/h (0 Bft)
Max-Datum _ 02.03.17 04.03.17 01.03.17 02.03.17 03.03.17 28.02.17 02.03.17 - 27.02.17 02.03.17 28.02.17 02.03.17 04.03.17 02.03.17
_ Max-Zeit 20:54 14:12 08:37 04:09 01:50 06:30 11:15 - 11:04 12:15 13:19 05:20 14:12 09:26
Maximum _ 24,6 C 14,8 C 56 % 96 % 1018,4 hPa 1,0 l/m 40,2 km/h
W-SW (6 Bft)
- 0,03 h 2,7 UV-I 759 W/m 5,4 C 14,8 C 62,8 km/h
W-SW (8 Bft)
Durchschnitt _ 23,5 C 5,4 C 50 % 76 % 1004,9 hPa #6,0 l/m 5,8 km/h (2 Bft) S #32:03 h 1,1 UV-I 174 W/m 1,1 C 3,9 C 10,2 km/h (2 Bft)